createdAt,value
2018-05-14T00:01:45.891Z,15.80
2018-05-14T00:04:13.508Z,15.70
2018-05-14T00:06:41.117Z,15.70
2018-05-14T00:09:08.739Z,15.70
2018-05-14T00:11:36.392Z,15.80
2018-05-14T00:14:03.976Z,15.60
2018-05-14T00:16:31.621Z,15.50
2018-05-14T00:18:59.199Z,15.50
2018-05-14T00:21:32.363Z,15.50
2018-05-14T00:23:59.948Z,15.50
2018-05-14T00:26:28.400Z,15.50
2018-05-14T00:28:55.991Z,15.40
2018-05-14T00:31:23.620Z,15.30
2018-05-14T00:33:51.196Z,15.30
2018-05-14T00:36:18.813Z,15.20
2018-05-14T00:38:46.432Z,15.20
2018-05-14T00:41:14.053Z,15.30
2018-05-14T00:43:41.632Z,15.30
2018-05-14T00:46:09.248Z,15.40
2018-05-14T00:48:36.831Z,15.30
2018-05-14T00:51:04.447Z,15.20
2018-05-14T00:53:32.045Z,15.10
2018-05-14T00:55:59.667Z,15.00
2018-05-14T00:58:28.060Z,15.00
2018-05-14T01:00:55.667Z,14.90
2018-05-14T01:03:23.288Z,14.90
2018-05-14T01:05:50.914Z,14.90
2018-05-14T01:08:19.303Z,14.80
2018-05-14T01:10:46.901Z,14.80
2018-05-14T01:13:14.529Z,14.80
2018-05-14T01:15:42.120Z,14.80
2018-05-14T01:18:09.755Z,14.80
2018-05-14T01:20:37.375Z,14.80
2018-05-14T01:23:04.972Z,14.80
2018-05-14T01:25:32.589Z,14.80
2018-05-14T01:28:00.238Z,14.80
2018-05-14T01:30:27.861Z,14.80
2018-05-14T01:32:55.455Z,14.90
2018-05-14T01:35:23.088Z,15.00
2018-05-14T01:37:50.716Z,15.00
2018-05-14T01:40:18.296Z,15.00
2018-05-14T01:42:45.920Z,15.00
2018-05-14T01:45:14.310Z,14.90
2018-05-14T01:47:41.896Z,14.90
2018-05-14T01:50:09.524Z,14.90
2018-05-14T01:52:37.116Z,14.90
2018-05-14T01:55:04.744Z,14.80
2018-05-14T01:57:32.360Z,14.80
2018-05-14T01:59:59.996Z,14.80
2018-05-14T02:02:27.631Z,14.70
2018-05-14T02:04:55.257Z,14.70
2018-05-14T02:07:23.617Z,14.50
2018-05-14T02:09:51.245Z,14.50
2018-05-14T02:12:18.823Z,14.50
2018-05-14T02:14:46.464Z,14.60
2018-05-14T02:17:14.043Z,14.60
2018-05-14T02:19:41.680Z,14.50
2018-05-14T02:22:09.275Z,14.50
2018-05-14T02:24:36.908Z,14.50
2018-05-14T02:27:04.540Z,14.50
2018-05-14T02:29:32.123Z,14.50
2018-05-14T02:31:59.740Z,14.50
2018-05-14T02:34:28.113Z,14.40
2018-05-14T02:36:55.756Z,14.50
2018-05-14T02:39:24.111Z,14.40
2018-05-14T02:41:51.751Z,14.40
2018-05-14T02:44:19.330Z,14.40
2018-05-14T02:46:46.955Z,14.40
2018-05-14T02:49:14.575Z,14.40
2018-05-14T02:51:42.939Z,14.40
2018-05-14T02:54:10.564Z,14.40
2018-05-14T02:56:38.144Z,14.50
2018-05-14T02:59:05.783Z,14.40
2018-05-14T03:01:33.364Z,14.40
2018-05-14T03:04:01.000Z,14.40
2018-05-14T03:06:28.640Z,14.40
2018-05-14T03:08:56.241Z,14.40
2018-05-14T03:11:23.862Z,14.40
2018-05-14T03:13:51.456Z,14.30
2018-05-14T03:16:19.094Z,14.30
2018-05-14T03:18:46.875Z,14.30
2018-05-14T03:21:14.454Z,14.30
2018-05-14T03:23:42.103Z,14.20
2018-05-14T03:26:10.481Z,14.30
2018-05-14T03:28:38.101Z,14.30
2018-05-14T03:31:05.719Z,14.30
2018-05-14T03:33:34.116Z,14.30
2018-05-14T03:36:01.696Z,14.30
2018-05-14T03:38:29.319Z,14.30
2018-05-14T03:40:57.664Z,14.30
2018-05-14T03:43:25.280Z,14.30
2018-05-14T03:45:52.856Z,14.30
2018-05-14T03:48:20.472Z,14.30
2018-05-14T03:50:48.824Z,14.30
2018-05-14T03:53:17.219Z,14.30
2018-05-14T03:55:44.805Z,14.30
2018-05-14T04:01:18.912Z,14.30
2018-05-14T04:06:52.319Z,14.30
2018-05-14T04:09:19.947Z,14.40
2018-05-14T04:11:47.524Z,14.40
2018-05-14T04:14:15.896Z,14.40
2018-05-14T04:16:44.279Z,14.40
2018-05-14T04:19:12.623Z,14.40
2018-05-14T04:21:40.247Z,14.40
2018-05-14T04:24:07.880Z,14.40
2018-05-14T04:26:36.277Z,14.40
2018-05-14T04:29:03.868Z,14.40
2018-05-14T04:31:31.485Z,14.40
2018-05-14T04:33:59.079Z,14.40
2018-05-14T04:36:26.708Z,14.40
2018-05-14T04:38:54.332Z,14.40
2018-05-14T04:41:21.957Z,14.40
2018-05-14T04:43:49.583Z,14.50
2018-05-14T04:46:17.211Z,14.40
2018-05-14T04:48:44.805Z,14.40
2018-05-14T04:51:12.428Z,14.40
2018-05-14T04:53:40.049Z,14.50
2018-05-14T04:56:07.664Z,14.50
2018-05-14T04:58:36.069Z,14.50
2018-05-14T05:01:03.684Z,14.50
2018-05-14T05:03:31.305Z,14.50
2018-05-14T05:05:58.884Z,14.50
2018-05-14T05:08:26.502Z,14.50
2018-05-14T05:10:54.083Z,14.60
2018-05-14T05:13:22.551Z,14.70
2018-05-14T05:15:50.187Z,14.80
2018-05-14T05:18:17.824Z,14.80
2018-05-14T05:20:46.216Z,14.80
2018-05-14T05:23:14.600Z,14.80
2018-05-14T05:25:42.234Z,14.90
2018-05-14T05:28:10.633Z,14.90
2018-05-14T05:30:38.224Z,14.80
2018-05-14T05:33:05.855Z,14.90
2018-05-14T05:35:33.444Z,14.90
2018-05-14T05:38:01.148Z,14.80
2018-05-14T05:40:28.708Z,14.80
2018-05-14T05:42:57.124Z,14.90
2018-05-14T05:45:24.754Z,14.90
2018-05-14T05:47:52.368Z,14.90
2018-05-14T05:50:19.961Z,15.00
2018-05-14T05:52:48.321Z,15.10
2018-05-14T05:55:15.951Z,15.00
2018-05-14T05:57:43.566Z,15.10
2018-05-14T06:00:11.976Z,15.20
2018-05-14T06:02:39.568Z,15.20
2018-05-14T06:05:07.244Z,15.30
2018-05-14T06:07:34.830Z,15.30
2018-05-14T06:10:02.458Z,15.40
2018-05-14T06:12:30.076Z,15.40
2018-05-14T06:14:58.468Z,15.50
2018-05-14T06:17:26.056Z,15.50
2018-05-14T06:19:53.700Z,15.50
2018-05-14T06:22:21.327Z,15.60
2018-05-14T06:24:48.911Z,15.70
2018-05-14T06:27:16.545Z,15.70
2018-05-14T06:29:44.133Z,15.70
2018-05-14T06:32:11.770Z,15.80
2018-05-14T06:34:39.498Z,15.80
2018-05-14T06:37:07.170Z,15.80
2018-05-14T06:39:34.898Z,15.80
2018-05-14T06:42:03.268Z,15.90
2018-05-14T06:44:30.853Z,15.80
2018-05-14T06:46:58.484Z,15.80
2018-05-14T06:49:26.149Z,15.80
2018-05-14T06:51:53.756Z,15.80
2018-05-14T06:54:21.404Z,15.90
2018-05-14T06:56:49.025Z,15.90
2018-05-14T06:59:16.615Z,16.00
2018-05-14T07:01:44.244Z,16.10
2018-05-14T07:04:12.600Z,16.20
2018-05-14T07:06:40.224Z,16.10
2018-05-14T07:09:07.808Z,16.20
2018-05-14T07:11:35.504Z,16.30
2018-05-14T07:14:03.076Z,16.20
2018-05-14T07:16:30.674Z,16.30
2018-05-14T07:18:58.304Z,16.30
2018-05-14T07:21:25.900Z,16.20
2018-05-14T07:23:53.540Z,16.30
2018-05-14T07:26:21.135Z,16.30
2018-05-14T07:28:48.768Z,16.40
2018-05-14T07:31:16.356Z,16.30
2018-05-14T07:33:43.996Z,16.40
2018-05-14T07:36:11.652Z,16.40
2018-05-14T07:38:39.273Z,16.40
2018-05-14T07:41:06.857Z,16.50
2018-05-14T07:43:34.476Z,16.50
2018-05-14T07:46:02.942Z,16.50
2018-05-14T07:48:31.243Z,16.50
2018-05-14T07:50:58.832Z,16.50
2018-05-14T07:53:26.479Z,16.50
2018-05-14T07:55:54.111Z,16.50
2018-05-14T07:58:22.509Z,16.50
2018-05-14T08:00:50.139Z,16.50
2018-05-14T08:03:18.499Z,16.50
2018-05-14T08:05:46.214Z,16.50
2018-05-14T08:08:13.735Z,16.50
2018-05-14T08:10:42.140Z,16.50
2018-05-14T08:13:09.772Z,16.50
2018-05-14T08:15:38.163Z,16.60
2018-05-14T08:18:05.761Z,16.60
2018-05-14T08:20:33.379Z,16.50
2018-05-14T08:23:01.771Z,16.60
2018-05-14T08:25:29.350Z,16.60
2018-05-14T08:27:56.983Z,16.70
2018-05-14T08:30:24.568Z,16.70
2018-05-14T08:32:52.195Z,16.70
2018-05-14T08:35:19.785Z,16.70
2018-05-14T08:37:47.399Z,16.70
2018-05-14T08:40:15.755Z,16.70
2018-05-14T08:42:43.380Z,16.70
2018-05-14T08:45:10.971Z,16.80
2018-05-14T08:47:38.588Z,16.80
2018-05-14T08:50:06.216Z,16.80
2018-05-14T08:52:34.599Z,16.80
2018-05-14T08:55:02.216Z,16.80
2018-05-14T08:57:29.809Z,16.80
2018-05-14T08:59:57.444Z,16.70
2018-05-14T09:02:25.028Z,16.60
2018-05-14T09:04:53.427Z,16.60
2018-05-14T09:07:21.015Z,16.60
2018-05-14T09:09:48.652Z,16.50
2018-05-14T09:12:16.269Z,16.50
2018-05-14T09:14:44.668Z,16.40
2018-05-14T09:17:12.286Z,16.40
2018-05-14T09:19:39.933Z,16.40
2018-05-14T09:22:07.512Z,16.30
2018-05-14T09:24:35.100Z,16.20
2018-05-14T09:27:02.728Z,16.20
2018-05-14T09:29:30.304Z,16.30
2018-05-14T09:31:58.685Z,16.10
2018-05-14T09:34:27.084Z,16.10
2018-05-14T09:36:54.661Z,16.20
2018-05-14T09:39:22.288Z,16.10
2018-05-14T09:41:49.868Z,16.10
2018-05-14T09:44:18.257Z,16.10
2018-05-14T09:46:45.846Z,16.10
2018-05-14T09:49:13.472Z,16.10
2018-05-14T09:51:41.100Z,16.20
2018-05-14T09:54:08.680Z,16.10
2018-05-14T09:56:36.304Z,16.10
2018-05-14T09:59:04.687Z,16.00
2018-05-14T10:01:33.032Z,16.00
2018-05-14T10:04:01.044Z,16.00
2018-05-14T10:06:28.665Z,15.90
2018-05-14T10:08:56.246Z,15.90
2018-05-14T10:11:24.632Z,15.90
2018-05-14T10:13:52.203Z,15.90
2018-05-14T10:16:19.823Z,15.80
2018-05-14T10:18:48.223Z,15.80
2018-05-14T10:21:15.819Z,15.80
2018-05-14T10:23:43.460Z,15.80
2018-05-14T10:26:11.093Z,15.80
2018-05-14T10:28:39.480Z,15.80
2018-05-14T10:31:07.095Z,15.80
2018-05-14T10:33:34.679Z,15.80
2018-05-14T10:36:03.068Z,15.80
2018-05-14T10:38:31.408Z,15.80
2018-05-14T10:40:59.030Z,15.80
2018-05-14T10:43:26.631Z,15.90
2018-05-14T10:45:54.258Z,15.90
2018-05-14T10:48:21.832Z,15.90
2018-05-14T10:50:49.456Z,15.80
2018-05-14T10:53:17.042Z,15.80
2018-05-14T10:55:44.665Z,15.70
2018-05-14T10:58:12.317Z,15.80
2018-05-14T11:00:39.900Z,15.70
2018-05-14T11:03:08.276Z,15.60
2018-05-14T11:05:35.900Z,15.60
2018-05-14T11:08:04.284Z,15.50
2018-05-14T11:10:32.680Z,15.40
2018-05-14T11:13:00.306Z,15.40
2018-05-14T11:15:27.933Z,15.40
2018-05-14T11:17:55.547Z,15.30
2018-05-14T11:20:23.137Z,15.30
2018-05-14T11:22:50.775Z,15.20
2018-05-14T11:25:18.388Z,15.20
2018-05-14T11:27:45.985Z,15.20
2018-05-14T11:30:13.636Z,15.20
2018-05-14T11:32:41.976Z,15.20
2018-05-14T11:35:09.598Z,15.10
2018-05-14T11:37:37.216Z,15.20
2018-05-14T11:40:05.620Z,15.00
2018-05-14T11:42:33.232Z,15.00
2018-05-14T11:45:00.816Z,15.00
2018-05-14T11:47:29.208Z,15.00
2018-05-14T11:49:56.839Z,15.00
2018-05-14T11:52:24.420Z,15.00
2018-05-14T11:54:52.811Z,15.00
2018-05-14T11:57:20.432Z,15.00
2018-05-14T11:59:48.061Z,15.00
2018-05-14T12:02:15.647Z,15.10
2018-05-14T12:04:43.236Z,15.10
2018-05-14T12:07:10.859Z,15.10
2018-05-14T12:09:38.436Z,15.10
2018-05-14T12:12:06.853Z,15.20
2018-05-14T12:14:34.448Z,15.20
2018-05-14T12:17:05.548Z,15.20
2018-05-14T12:19:33.175Z,15.20
2018-05-14T12:22:00.846Z,15.20
2018-05-14T12:24:29.201Z,15.30
2018-05-14T12:26:56.788Z,15.20
2018-05-14T12:29:25.164Z,15.20
2018-05-14T12:31:53.620Z,15.20
2018-05-14T12:34:21.237Z,15.20
2018-05-14T12:36:48.863Z,15.20
2018-05-14T12:39:17.246Z,15.20
2018-05-14T12:41:45.632Z,15.20
2018-05-14T12:44:13.364Z,15.20
2018-05-14T12:46:41.000Z,15.20
2018-05-14T12:49:08.585Z,15.20
2018-05-14T12:51:36.976Z,15.10
2018-05-14T12:54:05.363Z,15.10
2018-05-14T12:56:32.980Z,15.10
2018-05-14T12:59:00.566Z,15.00
2018-05-14T13:01:28.991Z,15.20
2018-05-14T13:03:56.624Z,15.20
2018-05-14T13:06:24.207Z,15.20
2018-05-14T13:08:51.835Z,15.30
2018-05-14T13:11:19.412Z,15.20
2018-05-14T13:13:47.089Z,15.20
2018-05-14T13:16:14.707Z,15.20
2018-05-14T13:18:42.296Z,15.30
2018-05-14T13:21:09.924Z,15.30
2018-05-14T13:23:37.510Z,15.40
2018-05-14T13:26:05.133Z,15.40
2018-05-14T13:28:33.487Z,15.40
2018-05-14T13:31:01.108Z,15.40
2018-05-14T13:33:28.699Z,15.40
2018-05-14T13:35:56.325Z,15.40
2018-05-14T13:38:23.906Z,15.40
2018-05-14T13:40:51.532Z,15.40
2018-05-14T13:43:19.164Z,15.40
2018-05-14T13:45:47.555Z,15.40
2018-05-14T13:48:15.181Z,15.40
2018-05-14T13:50:43.120Z,15.40
2018-05-14T13:53:10.748Z,15.30
2018-05-14T13:55:38.879Z,15.40
2018-05-14T13:58:06.831Z,15.40
2018-05-14T14:00:34.452Z,15.50
2018-05-14T14:03:02.097Z,15.50
2018-05-14T14:05:29.722Z,15.60
2018-05-14T14:07:57.352Z,15.60
2018-05-14T14:10:24.936Z,15.70
2018-05-14T14:12:52.567Z,15.70
2018-05-14T14:15:20.160Z,15.70
2018-05-14T14:17:47.792Z,15.60
2018-05-14T14:20:19.018Z,15.60
2018-05-14T14:22:46.647Z,15.70
2018-05-14T14:25:14.238Z,15.70
2018-05-14T14:27:42.623Z,15.70
2018-05-14T14:30:10.207Z,15.70
2018-05-14T14:32:38.653Z,15.70
2018-05-14T14:35:06.288Z,15.60
2018-05-14T14:37:33.903Z,15.60
2018-05-14T14:40:01.544Z,15.50
2018-05-14T14:42:29.136Z,15.50
2018-05-14T14:44:57.532Z,15.40
2018-05-14T14:47:25.117Z,15.40
2018-05-14T14:49:52.750Z,15.40
2018-05-14T14:52:20.348Z,15.40
2018-05-14T14:54:47.974Z,15.50
2018-05-14T14:57:15.598Z,15.60
2018-05-14T14:59:43.234Z,15.60
2018-05-14T15:02:10.868Z,15.60
2018-05-14T15:04:41.349Z,15.60
2018-05-14T15:07:09.370Z,15.60
2018-05-14T15:09:37.696Z,15.50
2018-05-14T15:12:06.062Z,15.60
2018-05-14T15:14:33.689Z,15.50
2018-05-14T15:17:02.157Z,15.60
2018-05-14T15:19:29.780Z,15.50
2018-05-14T15:21:58.168Z,15.60
2018-05-14T15:24:25.796Z,15.60
2018-05-14T15:26:53.420Z,15.60
2018-05-14T15:29:21.012Z,15.70
2018-05-14T15:31:48.640Z,15.70
2018-05-14T15:34:16.224Z,15.70
2018-05-14T15:36:43.848Z,15.70
2018-05-14T15:39:11.478Z,15.60
2018-05-14T15:41:39.080Z,15.60
2018-05-14T15:44:06.705Z,15.60
2018-05-14T15:46:34.328Z,15.60
2018-05-14T15:49:01.961Z,15.60
2018-05-14T15:51:29.556Z,15.60
2018-05-14T15:53:57.959Z,15.60
2018-05-14T15:56:25.610Z,15.60
2018-05-14T15:58:53.200Z,15.60
2018-05-14T16:01:20.824Z,15.60
2018-05-14T16:03:49.221Z,15.60
2018-05-14T16:06:16.804Z,15.50
2018-05-14T16:08:44.432Z,15.60
2018-05-14T16:11:12.051Z,15.50
2018-05-14T16:13:39.670Z,15.60
2018-05-14T16:16:07.251Z,15.60
2018-05-14T16:18:34.888Z,15.50
2018-05-14T16:21:02.510Z,15.50
2018-05-14T16:23:30.107Z,15.50
2018-05-14T16:25:57.725Z,15.40
2018-05-14T16:28:26.121Z,15.40
2018-05-14T16:30:53.719Z,15.40
2018-05-14T16:33:21.459Z,15.40
2018-05-14T16:35:48.984Z,15.40
2018-05-14T16:38:16.624Z,15.30
2018-05-14T16:40:44.223Z,15.30
2018-05-14T16:43:11.844Z,15.20
2018-05-14T16:45:39.432Z,15.20
2018-05-14T16:48:07.052Z,15.20
2018-05-14T16:50:34.680Z,15.20
2018-05-14T16:53:02.320Z,15.20
2018-05-14T16:55:29.939Z,15.20
2018-05-14T16:57:57.637Z,15.20
2018-05-14T17:00:25.954Z,15.20
2018-05-14T17:02:53.556Z,15.20
2018-05-14T17:05:21.220Z,15.20
2018-05-14T17:07:48.812Z,15.20
2018-05-14T17:10:16.406Z,15.20
2018-05-14T17:12:44.036Z,15.20
2018-05-14T17:15:11.651Z,15.20
2018-05-14T17:17:40.041Z,15.10
2018-05-14T17:20:07.680Z,15.10
2018-05-14T17:22:36.028Z,15.10
2018-05-14T17:25:03.685Z,15.10
2018-05-14T17:27:31.303Z,15.10
2018-05-14T17:29:58.935Z,15.10
2018-05-14T17:32:27.288Z,15.10
2018-05-14T17:34:54.916Z,15.10
2018-05-14T17:37:22.537Z,15.00
2018-05-14T17:39:50.172Z,15.00
2018-05-14T17:42:17.752Z,15.00
2018-05-14T17:44:45.335Z,14.90
2018-05-14T17:47:12.969Z,14.90
2018-05-14T17:49:41.326Z,14.90
2018-05-14T17:52:08.981Z,14.90
2018-05-14T17:54:36.580Z,14.80
2018-05-14T17:57:04.208Z,14.90
2018-05-14T17:59:32.579Z,14.80
2018-05-14T18:02:00.232Z,14.80
2018-05-14T18:04:27.844Z,14.80
2018-05-14T18:06:55.432Z,14.80
2018-05-14T18:09:23.056Z,14.80
2018-05-14T18:11:50.713Z,14.80
2018-05-14T18:14:18.305Z,14.80
2018-05-14T18:16:45.887Z,14.80
2018-05-14T18:19:13.520Z,14.70
2018-05-14T18:21:45.887Z,14.70
2018-05-14T18:24:19.096Z,14.70
2018-05-14T18:26:52.128Z,14.70
2018-05-14T18:29:34.482Z,14.70
2018-05-14T18:32:05.099Z,14.70
2018-05-14T18:34:38.420Z,14.60
2018-05-14T18:37:07.832Z,14.60
2018-05-14T18:39:35.426Z,14.60
2018-05-14T18:42:06.585Z,14.60
2018-05-14T18:44:47.735Z,14.60
2018-05-14T18:47:15.323Z,14.60
2018-05-14T18:52:19.288Z,14.50
2018-05-14T18:54:46.934Z,14.50
2018-05-14T18:57:14.553Z,14.40
2018-05-14T18:59:54.224Z,14.40
2018-05-14T19:02:24.481Z,14.30
2018-05-14T19:04:52.883Z,14.40
2018-05-14T19:07:21.672Z,14.40
2018-05-14T19:09:50.341Z,14.40
2018-05-14T19:12:18.785Z,14.40
2018-05-14T19:14:54.046Z,14.40
2018-05-14T19:17:27.873Z,14.40
2018-05-14T19:19:55.501Z,14.40
2018-05-14T19:22:28.673Z,14.40
2018-05-14T19:24:56.313Z,14.40
2018-05-14T19:27:23.921Z,14.30
2018-05-14T19:29:52.304Z,14.20
2018-05-14T19:32:20.658Z,14.20
2018-05-14T19:34:53.807Z,14.20
2018-05-14T19:37:21.432Z,14.20
2018-05-14T19:39:56.676Z,14.30
2018-05-14T19:42:24.308Z,14.30
2018-05-14T19:44:52.719Z,14.30
2018-05-14T19:47:20.300Z,14.30
2018-05-14T19:49:47.988Z,14.30
2018-05-14T19:52:15.644Z,14.20
2018-05-14T19:54:43.246Z,14.20
2018-05-14T19:57:10.868Z,14.20
2018-05-14T19:59:38.469Z,14.20
2018-05-14T20:02:06.140Z,14.20
2018-05-14T20:04:33.773Z,14.30
2018-05-14T20:07:02.124Z,14.30
2018-05-14T20:09:29.716Z,14.30
2018-05-14T20:11:57.356Z,14.30
2018-05-14T20:14:25.757Z,14.20
2018-05-14T20:16:53.388Z,14.20
2018-05-14T20:19:21.112Z,14.20
2018-05-14T20:21:48.784Z,14.20
2018-05-14T20:24:17.179Z,14.10
2018-05-14T20:26:44.810Z,14.10
2018-05-14T20:29:12.448Z,14.10
2018-05-14T20:31:40.035Z,14.00
2018-05-14T20:34:07.660Z,14.10
2018-05-14T20:36:35.273Z,14.10
2018-05-14T20:39:02.910Z,14.10
2018-05-14T20:41:30.537Z,14.10
2018-05-14T20:43:58.119Z,14.00
2018-05-14T20:46:25.777Z,14.00
2018-05-14T20:48:53.351Z,14.00
2018-05-14T20:51:20.976Z,14.00
2018-05-14T20:53:48.600Z,13.90
2018-05-14T20:56:16.989Z,13.90
2018-05-14T20:58:44.612Z,13.90
2018-05-14T21:01:13.248Z,13.90
2018-05-14T21:03:40.852Z,13.90
2018-05-14T21:06:08.484Z,13.90
2018-05-14T21:08:36.832Z,13.90
2018-05-14T21:11:04.453Z,13.90
2018-05-14T21:13:32.798Z,13.90
2018-05-14T21:16:01.185Z,13.90
2018-05-14T21:18:28.799Z,13.90
2018-05-14T21:20:56.412Z,13.90
2018-05-14T21:23:24.027Z,13.80
2018-05-14T21:25:51.664Z,13.80
2018-05-14T21:28:19.249Z,13.80
2018-05-14T21:30:46.868Z,13.80
2018-05-14T21:33:14.501Z,13.80
2018-05-14T21:35:42.130Z,13.80
2018-05-14T21:38:09.723Z,13.80
2018-05-14T21:40:37.351Z,13.80
2018-05-14T21:43:05.700Z,13.80
2018-05-14T21:45:33.349Z,13.80
2018-05-14T21:48:00.933Z,13.80
2018-05-14T21:50:28.642Z,13.80
2018-05-14T21:52:56.180Z,13.80
2018-05-14T21:55:24.598Z,13.80
2018-05-14T21:57:52.238Z,13.80
2018-05-14T22:00:19.857Z,13.80
2018-05-14T22:02:48.342Z,13.70
2018-05-14T22:05:16.714Z,13.60
2018-05-14T22:07:45.096Z,13.60
2018-05-14T22:10:12.729Z,13.60
2018-05-14T22:12:40.348Z,13.60
2018-05-14T22:15:07.968Z,13.60
2018-05-14T22:17:35.547Z,13.60
2018-05-14T22:20:03.932Z,13.50
2018-05-14T22:22:31.554Z,13.50
2018-05-14T22:24:59.183Z,13.50
2018-05-14T22:27:26.772Z,13.50
2018-05-14T22:29:54.397Z,13.50
2018-05-14T22:32:22.776Z,13.50
2018-05-14T22:34:50.423Z,13.50
2018-05-14T22:37:18.073Z,13.40
2018-05-14T22:39:45.692Z,13.40
2018-05-14T22:42:13.303Z,13.50
2018-05-14T22:44:40.929Z,13.40
2018-05-14T22:47:09.279Z,13.60
2018-05-14T22:49:36.906Z,13.50
2018-05-14T22:52:04.528Z,13.50
2018-05-14T22:54:37.024Z,13.50
2018-05-14T22:57:04.699Z,13.50
2018-05-14T22:59:32.342Z,13.40
2018-05-14T23:01:59.972Z,13.40
2018-05-14T23:04:28.326Z,13.40
2018-05-14T23:06:55.951Z,13.40
2018-05-14T23:09:23.535Z,13.30
2018-05-14T23:11:51.159Z,13.30
2018-05-14T23:14:18.779Z,13.40
2018-05-14T23:16:47.136Z,13.40
2018-05-14T23:19:14.764Z,13.40
2018-05-14T23:21:42.348Z,13.40
2018-05-14T23:24:09.970Z,13.40
2018-05-14T23:26:37.547Z,13.40
2018-05-14T23:29:05.156Z,13.40
2018-05-14T23:31:33.556Z,13.40
2018-05-14T23:34:01.134Z,13.40
2018-05-14T23:36:28.768Z,13.40
2018-05-14T23:38:56.356Z,13.40
2018-05-14T23:41:23.945Z,13.40
2018-05-14T23:43:51.575Z,13.40
2018-05-14T23:46:19.154Z,13.40
2018-05-14T23:48:46.775Z,13.40
2018-05-14T23:51:14.396Z,13.40
2018-05-14T23:53:42.743Z,13.30
2018-05-14T23:56:10.369Z,13.30
2018-05-14T23:58:37.952Z,13.30
